createdAt,value
2024-04-22T00:00:13.779Z,63.76
2024-04-22T00:01:13.842Z,63.87
2024-04-22T00:02:13.790Z,63.90
2024-04-22T00:03:13.779Z,63.79
2024-04-22T00:04:13.870Z,64.00
2024-04-22T00:05:13.793Z,64.42
2024-04-22T00:06:13.733Z,64.62
2024-04-22T00:07:13.757Z,64.83
2024-04-22T00:08:13.697Z,64.94
2024-04-22T00:09:13.694Z,64.83
2024-04-22T00:10:13.773Z,65.04
2024-04-22T00:11:13.720Z,65.25
2024-04-22T00:12:13.842Z,65.35
2024-04-22T00:13:13.678Z,65.66
2024-04-22T00:14:13.635Z,65.66
2024-04-22T00:15:13.629Z,65.77
2024-04-22T00:16:13.658Z,65.87
2024-04-22T00:17:13.615Z,66.18
2024-04-22T00:18:13.661Z,66.28
2024-04-22T00:19:13.650Z,66.50
2024-04-22T00:20:13.596Z,66.71
2024-04-22T00:21:13.589Z,66.84
2024-04-22T00:22:13.640Z,66.84
2024-04-22T00:23:13.548Z,66.84
2024-04-22T00:24:13.526Z,66.94
2024-04-22T00:25:13.550Z,67.15
2024-04-22T00:26:13.513Z,67.15
2024-04-22T00:27:13.498Z,67.25
2024-04-22T00:28:13.523Z,67.36
2024-04-22T00:29:13.478Z,67.46
2024-04-22T00:30:13.480Z,67.77
2024-04-22T00:31:13.497Z,67.98
2024-04-22T00:32:13.456Z,67.98
2024-04-22T00:33:13.537Z,68.08
2024-04-22T00:34:13.468Z,68.08
2024-04-22T00:35:13.408Z,68.29
2024-04-22T00:36:13.402Z,68.29
2024-04-22T00:37:13.425Z,68.40
2024-04-22T00:38:13.385Z,68.50
2024-04-22T00:39:13.427Z,68.50
2024-04-22T00:40:13.465Z,68.71
2024-04-22T00:41:13.376Z,68.71
2024-04-22T00:42:13.353Z,68.71
2024-04-22T00:43:13.388Z,68.81
2024-04-22T00:44:13.339Z,68.81
2024-04-22T00:45:13.304Z,68.91
2024-04-22T00:46:13.347Z,68.91
2024-04-22T00:47:13.320Z,69.12
2024-04-22T00:48:13.281Z,69.23
2024-04-22T00:49:13.291Z,69.12
2024-04-22T00:50:13.249Z,69.33
2024-04-22T00:51:13.280Z,69.43
2024-04-22T00:52:13.287Z,69.57
2024-04-22T00:53:13.225Z,69.64
2024-04-22T00:54:13.208Z,69.78
2024-04-22T00:55:13.240Z,69.89
2024-04-22T00:56:13.182Z,69.89
2024-04-22T00:57:13.189Z,69.99
2024-04-22T00:58:13.211Z,70.09
2024-04-22T00:59:13.158Z,70.20
2024-04-22T01:00:13.148Z,70.20
2024-04-22T01:01:13.151Z,70.30
2024-04-22T01:02:13.131Z,70.40
2024-04-22T01:03:13.154Z,70.51
2024-04-22T01:04:13.307Z,70.51
2024-04-22T01:05:13.159Z,70.92
2024-04-22T01:06:13.085Z,70.92
2024-04-22T01:07:13.121Z,71.03
2024-04-22T01:08:13.110Z,71.03
2024-04-22T01:09:13.058Z,71.03
2024-04-22T01:10:13.192Z,71.03
2024-04-22T01:11:13.055Z,71.13
2024-04-22T01:12:13.029Z,71.34
2024-04-22T01:13:13.111Z,71.34
2024-04-22T01:14:12.999Z,71.34
2024-04-22T01:15:13.003Z,71.34
2024-04-22T01:16:13.022Z,71.44
2024-04-22T01:17:12.987Z,71.55
2024-04-22T01:18:12.964Z,71.65
2024-04-22T01:19:12.998Z,71.65
2024-04-22T01:20:12.978Z,71.75
2024-04-22T01:21:12.949Z,71.86
2024-04-22T01:22:12.969Z,71.86
2024-04-22T01:23:12.906Z,71.97
2024-04-22T01:24:12.888Z,72.17
2024-04-22T01:25:12.942Z,72.17
2024-04-22T01:26:12.886Z,72.17
2024-04-22T01:27:12.863Z,72.17
2024-04-22T01:28:12.870Z,72.17
2024-04-22T01:29:12.860Z,72.28
2024-04-22T01:30:12.832Z,72.28
2024-04-22T01:31:12.833Z,72.28
2024-04-22T01:32:12.915Z,72.49
2024-04-22T01:33:12.894Z,72.59
2024-04-22T01:34:12.816Z,72.49
2024-04-22T01:35:12.765Z,72.49
2024-04-22T01:36:12.762Z,72.59
2024-04-22T01:37:12.794Z,72.69
2024-04-22T01:38:12.737Z,72.80
2024-04-22T01:39:12.724Z,72.90
2024-04-22T01:40:12.737Z,72.90
2024-04-22T01:41:12.710Z,73.00
2024-04-22T01:42:12.713Z,73.21
2024-04-22T01:43:12.720Z,73.21
2024-04-22T01:44:12.677Z,73.21
2024-04-22T01:45:12.664Z,73.21
2024-04-22T01:46:12.705Z,73.32
2024-04-22T01:47:12.668Z,73.32
2024-04-22T01:48:12.636Z,73.42
2024-04-22T01:49:12.689Z,73.52
2024-04-22T01:50:12.639Z,73.63
2024-04-22T01:51:12.621Z,73.73
2024-04-22T01:52:12.601Z,73.83
2024-04-22T01:53:12.577Z,73.73
2024-04-22T01:54:12.603Z,73.73
2024-04-22T01:55:12.584Z,73.83
2024-04-22T01:56:12.543Z,73.94
2024-04-22T01:57:12.524Z,74.15
2024-04-22T01:58:12.571Z,74.15
2024-04-22T01:59:12.519Z,74.04
2024-04-22T02:00:12.510Z,74.15
2024-04-22T02:01:12.567Z,74.25
2024-04-22T02:02:12.522Z,74.15
2024-04-22T02:03:12.483Z,74.04
2024-04-22T02:04:12.502Z,74.15
2024-04-22T02:05:12.478Z,74.15
2024-04-22T02:06:12.438Z,74.25
2024-04-22T02:07:12.440Z,74.25
2024-04-22T02:08:12.418Z,74.15
2024-04-22T02:09:12.403Z,74.15
2024-04-22T02:10:21.511Z,74.15
2024-04-22T02:11:12.434Z,74.15
2024-04-22T02:12:12.377Z,74.15
2024-04-22T02:13:12.379Z,74.15
2024-04-22T02:14:12.361Z,74.15
2024-04-22T02:15:12.340Z,74.15
2024-04-22T02:16:12.367Z,74.25
2024-04-22T02:17:12.336Z,74.25
2024-04-22T02:18:12.359Z,74.25
2024-04-22T02:19:12.331Z,74.25
2024-04-22T02:20:12.311Z,74.25
2024-04-22T02:21:12.297Z,74.25
2024-04-22T02:22:12.289Z,74.25
2024-04-22T02:23:12.262Z,74.35
2024-04-22T02:24:12.244Z,74.46
2024-04-22T02:25:12.272Z,74.57
2024-04-22T02:26:12.227Z,74.57
2024-04-22T02:27:12.241Z,74.57
2024-04-22T02:28:12.230Z,74.57
2024-04-22T02:29:12.183Z,74.57
2024-04-22T02:30:12.182Z,74.70
2024-04-22T02:31:12.204Z,74.70
2024-04-22T02:32:12.180Z,74.80
2024-04-22T02:33:12.306Z,74.91
2024-04-22T02:34:12.175Z,74.91
2024-04-22T02:35:12.123Z,75.01
2024-04-22T02:36:12.128Z,75.12
2024-04-22T02:37:12.132Z,75.32
2024-04-22T02:38:12.116Z,75.22
2024-04-22T02:39:12.082Z,75.22
2024-04-22T02:40:12.176Z,75.12
2024-04-22T02:41:12.057Z,75.12
2024-04-22T02:42:12.045Z,75.22
2024-04-22T02:43:12.110Z,75.43
2024-04-22T02:44:12.079Z,75.43
2024-04-22T02:45:12.038Z,75.32
2024-04-22T02:46:12.052Z,75.32
2024-04-22T02:47:12.048Z,75.54
2024-04-22T02:48:12.032Z,75.54
2024-04-22T02:49:12.016Z,75.54
2024-04-22T02:50:11.981Z,75.43
2024-04-22T02:51:12.071Z,75.54
2024-04-22T02:52:11.985Z,75.64
2024-04-22T02:53:11.937Z,75.74
2024-04-22T02:54:11.926Z,75.64
2024-04-22T02:55:11.949Z,75.64
2024-04-22T02:56:11.901Z,75.74
2024-04-22T02:57:11.993Z,75.85
2024-04-22T02:58:11.902Z,75.85
2024-04-22T02:59:11.864Z,75.85
2024-04-22T03:00:11.872Z,75.85
2024-04-22T03:01:11.951Z,75.95
2024-04-22T03:02:11.862Z,76.06
2024-04-22T03:03:11.821Z,76.06
2024-04-22T03:04:11.850Z,76.06
2024-04-22T03:05:11.811Z,76.06
2024-04-22T03:06:11.792Z,76.16
2024-04-22T03:07:11.808Z,76.16
2024-04-22T03:08:11.797Z,76.16
2024-04-22T03:09:11.795Z,76.16
2024-04-22T03:10:11.750Z,76.16
2024-04-22T03:11:11.749Z,76.16
2024-04-22T03:12:11.772Z,76.06
2024-04-22T03:13:11.788Z,76.16
2024-04-22T03:14:11.726Z,76.16
2024-04-22T03:15:11.698Z,76.26
2024-04-22T03:16:11.731Z,76.26
2024-04-22T03:17:11.704Z,76.26
2024-04-22T03:18:11.760Z,76.37
2024-04-22T03:19:11.670Z,76.47
2024-04-22T03:20:11.644Z,76.57
2024-04-22T03:21:11.652Z,76.57
2024-04-22T03:22:11.661Z,76.57
2024-04-22T03:23:11.629Z,76.57
2024-04-22T03:24:11.617Z,76.72
2024-04-22T03:25:11.598Z,76.82
2024-04-22T03:26:11.581Z,76.92
2024-04-22T03:27:11.569Z,77.03
2024-04-22T03:28:11.569Z,77.03
2024-04-22T03:29:11.563Z,77.03
2024-04-22T03:30:11.542Z,77.03
2024-04-22T03:31:11.566Z,77.03
2024-04-22T03:32:11.594Z,76.92
2024-04-22T03:33:11.577Z,77.03
2024-04-22T03:34:11.522Z,77.13
2024-04-22T03:35:11.482Z,77.13
2024-04-22T03:36:11.466Z,77.23
2024-04-22T03:37:11.481Z,77.34
2024-04-22T03:38:11.445Z,77.44
2024-04-22T03:39:11.445Z,77.55
2024-04-22T03:40:11.470Z,77.55
2024-04-22T03:41:11.427Z,77.55
2024-04-22T03:42:11.417Z,77.44
2024-04-22T03:43:11.445Z,77.44
2024-04-22T03:44:11.422Z,77.44
2024-04-22T03:45:11.374Z,77.44
2024-04-22T03:46:11.442Z,77.44
2024-04-22T03:47:11.405Z,77.55
2024-04-22T03:48:11.440Z,77.65
2024-04-22T03:49:11.359Z,77.65
2024-04-22T03:50:11.329Z,77.75
2024-04-22T03:51:11.316Z,77.75
2024-04-22T03:52:11.323Z,77.75
2024-04-22T03:53:11.291Z,77.86
2024-04-22T03:54:11.281Z,77.86
2024-04-22T03:55:11.294Z,77.75
2024-04-22T03:56:11.257Z,77.75
2024-04-22T03:57:11.254Z,77.75
2024-04-22T03:58:11.238Z,77.75
2024-04-22T03:59:11.224Z,77.86
2024-04-22T04:00:11.214Z,77.86
2024-04-22T04:01:11.287Z,77.86
2024-04-22T04:02:11.198Z,77.86
2024-04-22T04:03:11.180Z,77.86
2024-04-22T04:04:11.262Z,77.75
2024-04-22T04:05:11.243Z,77.75
2024-04-22T04:06:11.156Z,77.86
2024-04-22T04:07:11.183Z,77.86
2024-04-22T04:08:11.118Z,77.96
2024-04-22T04:09:11.119Z,77.96
2024-04-22T04:10:11.209Z,77.96
2024-04-22T04:11:11.138Z,78.07
2024-04-22T04:12:11.075Z,78.07
2024-04-22T04:13:11.114Z,78.07
2024-04-22T04:14:11.069Z,78.07
2024-04-22T04:15:11.050Z,78.17
2024-04-22T04:16:11.071Z,78.17
2024-04-22T04:17:11.081Z,78.07
2024-04-22T04:18:11.038Z,78.07
2024-04-22T04:19:11.050Z,78.07
2024-04-22T04:20:10.995Z,78.07
2024-04-22T04:21:10.982Z,78.03
2024-04-22T04:22:11.001Z,78.03
2024-04-22T04:23:10.984Z,77.93
2024-04-22T04:24:10.943Z,78.03
2024-04-22T04:25:10.956Z,77.93
2024-04-22T04:26:10.922Z,77.83
2024-04-22T04:27:10.923Z,77.72
2024-04-22T04:28:10.950Z,77.72
2024-04-22T04:29:10.899Z,77.61
2024-04-22T04:30:10.926Z,77.51
2024-04-22T04:31:10.908Z,77.51
2024-04-22T04:32:10.987Z,77.51
2024-04-22T04:33:10.979Z,77.51
2024-04-22T04:34:10.868Z,77.51
2024-04-22T04:35:10.831Z,77.40
2024-04-22T04:36:10.816Z,77.40
2024-04-22T04:37:10.819Z,77.40
2024-04-22T04:38:10.788Z,77.40
2024-04-22T04:39:10.792Z,77.40
2024-04-22T04:40:10.802Z,77.40
2024-04-22T04:41:10.769Z,77.40
2024-04-22T04:42:10.756Z,77.40
2024-04-22T04:43:10.789Z,77.37
2024-04-22T04:44:10.737Z,77.27
2024-04-22T04:45:10.737Z,77.27
2024-04-22T04:46:10.775Z,77.27
2024-04-22T04:47:10.715Z,77.27
2024-04-22T04:48:10.712Z,77.27
2024-04-22T04:49:10.709Z,77.16
2024-04-22T04:50:10.671Z,77.16
2024-04-22T04:51:10.683Z,77.27
2024-04-22T04:52:10.705Z,77.27
2024-04-22T04:53:10.650Z,77.16
2024-04-22T04:54:10.621Z,77.16
2024-04-22T04:55:10.664Z,77.06
2024-04-22T04:56:10.617Z,76.95
2024-04-22T04:57:10.601Z,76.85
2024-04-22T04:58:10.626Z,76.72
2024-04-22T04:59:10.577Z,76.51
2024-04-22T05:00:10.569Z,76.51
2024-04-22T05:01:10.644Z,76.51
2024-04-22T05:02:10.638Z,76.51
2024-04-22T05:03:10.602Z,76.40
2024-04-22T05:04:10.537Z,76.29
2024-04-22T05:05:10.509Z,76.19
2024-04-22T05:06:10.596Z,76.19
2024-04-22T05:07:13.083Z,76.09
2024-04-22T05:08:10.504Z,76.19
2024-04-22T05:09:10.475Z,76.19
2024-04-22T05:10:10.500Z,76.19
2024-04-22T05:11:10.441Z,76.09
2024-04-22T05:12:10.443Z,75.98
2024-04-22T05:13:10.477Z,75.85
2024-04-22T05:14:10.450Z,75.74
2024-04-22T05:15:10.415Z,75.74
2024-04-22T05:16:10.413Z,75.74
2024-04-22T05:17:10.411Z,75.74
2024-04-22T05:18:10.406Z,75.74
2024-04-22T05:19:10.418Z,75.74
2024-04-22T05:20:10.348Z,75.64
2024-04-22T05:21:10.944Z,75.64
2024-04-22T05:22:10.391Z,75.54
2024-04-22T05:23:10.325Z,75.43
2024-04-22T05:24:10.328Z,75.22
2024-04-22T05:25:10.350Z,75.19
2024-04-22T05:26:10.317Z,75.09
2024-04-22T05:27:10.284Z,74.67
2024-04-22T05:28:10.317Z,74.67
2024-04-22T05:29:10.259Z,74.67
2024-04-22T05:30:10.245Z,74.67
2024-04-22T05:31:10.305Z,74.67
2024-04-22T05:32:10.243Z,74.77
2024-04-22T05:33:10.253Z,74.67
2024-04-22T05:34:10.212Z,74.67
2024-04-22T05:35:10.197Z,74.46
2024-04-22T05:36:10.179Z,74.26
2024-04-22T05:37:10.187Z,74.11
2024-04-22T05:38:10.165Z,74.01
2024-04-22T05:39:10.166Z,74.01
2024-04-22T05:40:10.138Z,74.01
2024-04-22T05:41:10.129Z,73.70
2024-04-22T05:42:10.153Z,73.49
2024-04-22T05:43:10.132Z,73.28
2024-04-22T05:44:10.094Z,73.28
2024-04-22T05:45:10.088Z,73.28
2024-04-22T05:46:10.330Z,73.28
2024-04-22T05:47:10.067Z,72.97
2024-04-22T05:48:10.188Z,72.84
2024-04-22T05:49:10.064Z,72.74
2024-04-22T05:50:10.024Z,72.53
2024-04-22T05:51:10.027Z,72.32
2024-04-22T05:52:10.036Z,72.22
2024-04-22T05:53:10.038Z,72.22
2024-04-22T05:54:09.978Z,72.11
2024-04-22T05:55:10.210Z,71.80
2024-04-22T05:56:09.957Z,71.70
2024-04-22T05:57:09.958Z,71.66
2024-04-22T05:58:09.991Z,71.56
2024-04-22T05:59:09.947Z,71.35
2024-04-22T06:00:09.938Z,71.04
2024-04-22T06:01:09.959Z,70.94
2024-04-22T06:02:10.019Z,70.52
2024-04-22T06:03:10.014Z,70.31
2024-04-22T06:04:10.006Z,70.42
2024-04-22T06:05:09.876Z,70.21
2024-04-22T06:06:09.848Z,70.07
2024-04-22T06:07:09.853Z,70.07
2024-04-22T06:08:09.828Z,70.07
2024-04-22T06:09:09.888Z,69.97
2024-04-22T06:10:09.849Z,69.87
2024-04-22T06:11:09.845Z,69.45
2024-04-22T06:12:17.499Z,69.35
2024-04-22T06:13:09.826Z,69.01
2024-04-22T06:14:09.950Z,68.59
2024-04-22T06:15:09.776Z,67.76
2024-04-22T06:16:09.854Z,67.35
2024-04-22T06:17:09.868Z,67.03
2024-04-22T06:18:09.752Z,66.83
2024-04-22T06:19:09.758Z,66.31
2024-04-22T06:20:09.718Z,66.21
2024-04-22T06:21:09.690Z,66.21
2024-04-22T06:22:09.708Z,65.80
2024-04-22T06:23:09.706Z,65.17
2024-04-22T06:24:09.682Z,65.28
2024-04-22T06:25:09.726Z,65.48
2024-04-22T06:26:09.633Z,65.14
2024-04-22T06:27:09.648Z,64.62
2024-04-22T06:28:09.662Z,64.73
2024-04-22T06:29:09.613Z,64.73
2024-04-22T06:30:09.594Z,64.73
2024-04-22T06:31:11.638Z,64.52
2024-04-22T06:32:09.674Z,64.28
2024-04-22T06:33:09.582Z,64.28
2024-04-22T06:34:09.624Z,64.39
2024-04-22T06:35:09.566Z,64.49
2024-04-22T06:36:09.541Z,64.39
2024-04-22T06:37:09.573Z,64.39
2024-04-22T06:38:09.507Z,64.46
2024-04-22T06:39:09.512Z,64.67
2024-04-22T06:40:09.506Z,64.46
2024-04-22T06:41:09.489Z,64.46
2024-04-22T06:42:09.474Z,64.56
2024-04-22T06:43:09.455Z,64.25
2024-04-22T06:44:09.453Z,63.95
2024-04-22T06:45:09.426Z,63.95
2024-04-22T06:46:09.564Z,63.84
2024-04-22T06:47:09.457Z,63.84
2024-04-22T06:48:09.460Z,63.95
2024-04-22T06:49:09.483Z,64.23
2024-04-22T06:50:09.380Z,63.92
2024-04-22T06:51:09.381Z,64.02
2024-04-22T06:52:09.461Z,63.81
2024-04-22T06:53:09.340Z,63.92
2024-04-22T06:54:09.326Z,64.02
2024-04-22T06:55:09.456Z,64.12
2024-04-22T06:56:09.303Z,63.99
2024-04-22T06:57:09.328Z,63.89
2024-04-22T06:58:09.298Z,63.68
2024-04-22T06:59:09.282Z,63.68
2024-04-22T07:00:09.259Z,63.78
2024-04-22T07:01:12.814Z,63.89
2024-04-22T07:02:11.838Z,63.68
2024-04-22T07:03:09.883Z,63.57
2024-04-22T07:04:09.291Z,63.57
2024-04-22T07:05:09.316Z,63.68
2024-04-22T07:06:09.200Z,63.57
2024-04-22T07:07:09.199Z,63.57
2024-04-22T07:08:09.819Z,63.44
2024-04-22T07:09:09.202Z,63.44
2024-04-22T07:10:09.173Z,63.44
2024-04-22T07:11:09.184Z,63.75
2024-04-22T07:12:09.153Z,63.75
2024-04-22T07:13:09.165Z,63.23
2024-04-22T07:14:09.114Z,62.62
2024-04-22T07:15:09.134Z,62.72
2024-04-22T07:16:09.091Z,62.38
2024-04-22T07:17:09.186Z,62.17
2024-04-22T07:18:09.139Z,62.17
2024-04-22T07:19:09.092Z,62.07
2024-04-22T07:20:09.050Z,61.76
2024-04-22T07:21:09.040Z,61.73
2024-04-22T07:22:09.033Z,61.94
2024-04-22T07:23:09.061Z,62.04
2024-04-22T07:24:09.048Z,61.83
2024-04-22T07:25:09.009Z,61.63
2024-04-22T07:26:09.006Z,61.42
2024-04-22T07:27:15.937Z,61.19
2024-04-22T07:28:08.964Z,61.08
2024-04-22T07:29:08.996Z,60.88
2024-04-22T07:30:08.942Z,60.88
2024-04-22T07:31:08.934Z,60.57
2024-04-22T07:32:08.940Z,60.57
2024-04-22T07:33:09.036Z,60.36
2024-04-22T07:34:08.897Z,60.26
2024-04-22T07:35:08.916Z,60.16
2024-04-22T07:36:08.878Z,60.26
2024-04-22T07:37:08.879Z,60.16
2024-04-22T07:38:08.880Z,60.16
2024-04-22T07:39:08.856Z,60.16
2024-04-22T07:40:08.874Z,60.26
2024-04-22T07:41:08.850Z,60.44
2024-04-22T07:42:08.828Z,60.75
2024-04-22T07:43:08.809Z,61.16
2024-04-22T07:44:08.847Z,60.54
2024-04-22T07:45:08.783Z,59.82
2024-04-22T07:46:08.783Z,59.61
2024-04-22T07:47:08.810Z,59.72
2024-04-22T07:48:08.806Z,59.72
2024-04-22T07:49:08.767Z,59.79
2024-04-22T07:50:08.720Z,60.00
2024-04-22T07:51:08.718Z,60.31
2024-04-22T07:52:08.713Z,60.21
2024-04-22T07:53:08.752Z,60.51
2024-04-22T07:54:08.692Z,60.61
2024-04-22T07:55:08.681Z,60.31
2024-04-22T07:56:08.654Z,60.00
2024-04-22T07:57:08.662Z,59.79
2024-04-22T07:58:08.679Z,59.58
2024-04-22T07:59:08.659Z,60.10
2024-04-22T08:00:08.646Z,59.48
2024-04-22T08:01:08.647Z,59.28
2024-04-22T08:02:08.596Z,59.28
2024-04-22T08:03:08.651Z,59.56
2024-04-22T08:04:08.672Z,59.35
2024-04-22T08:05:08.613Z,59.14
2024-04-22T08:06:08.570Z,59.25
2024-04-22T08:07:08.571Z,59.25
2024-04-22T08:08:08.560Z,59.25
2024-04-22T08:09:08.534Z,59.25
2024-04-22T08:10:08.613Z,58.73
2024-04-22T08:11:08.550Z,58.53
2024-04-22T08:12:08.488Z,58.11
2024-04-22T08:13:08.503Z,57.98
2024-04-22T08:14:08.477Z,58.19
2024-04-22T08:15:08.471Z,58.19
2024-04-22T08:16:08.447Z,58.09
2024-04-22T08:17:08.567Z,57.98
2024-04-22T08:18:08.470Z,57.98
2024-04-22T08:19:08.404Z,57.98
2024-04-22T08:20:08.437Z,58.40
2024-04-22T08:21:08.395Z,58.81
2024-04-22T08:22:08.370Z,58.70
2024-04-22T08:23:08.485Z,57.68
2024-04-22T08:24:08.359Z,57.68
2024-04-22T08:25:08.354Z,58.29
2024-04-22T08:26:08.331Z,58.40
2024-04-22T08:27:08.320Z,58.40
2024-04-22T08:28:08.355Z,58.60
2024-04-22T08:29:08.308Z,58.81
2024-04-22T08:30:08.291Z,58.60
2024-04-22T08:31:08.281Z,58.70
2024-04-22T08:32:08.295Z,58.42
2024-04-22T08:33:08.485Z,58.55
2024-04-22T08:34:08.371Z,58.97
2024-04-22T08:35:08.245Z,59.17
2024-04-22T08:36:08.234Z,59.48
2024-04-22T08:37:08.218Z,59.69
2024-04-22T08:38:08.223Z,59.79
2024-04-22T08:39:08.219Z,59.79
2024-04-22T08:40:08.194Z,59.89
2024-04-22T08:41:08.222Z,59.66
2024-04-22T08:42:08.154Z,59.45
2024-04-22T08:43:08.151Z,59.35
2024-04-22T08:44:08.180Z,59.45
2024-04-22T08:45:08.169Z,59.42
2024-04-22T08:46:08.124Z,59.12
2024-04-22T08:47:08.146Z,59.01
2024-04-22T08:48:08.202Z,58.78
2024-04-22T08:49:08.082Z,58.58
2024-04-22T08:50:08.119Z,58.47
2024-04-22T08:51:08.067Z,58.26
2024-04-22T08:52:08.052Z,57.54
2024-04-22T08:53:08.134Z,57.44
2024-04-22T08:54:08.030Z,56.95
2024-04-22T08:55:08.049Z,56.95
2024-04-22T08:56:08.008Z,57.37
2024-04-22T08:57:08.015Z,57.88
2024-04-22T08:58:07.996Z,58.19
2024-04-22T08:59:11.758Z,58.40
2024-04-22T09:00:07.987Z,58.53
2024-04-22T09:01:08.014Z,58.84
2024-04-22T09:02:07.963Z,59.56
2024-04-22T09:03:08.954Z,59.86
2024-04-22T09:04:07.946Z,60.69
2024-04-22T09:05:09.304Z,61.65
2024-04-22T09:06:08.137Z,62.37
2024-04-22T09:07:07.981Z,62.88
2024-04-22T09:08:07.987Z,63.64
2024-04-22T09:09:08.887Z,64.25
2024-04-22T09:10:34.883Z,65.49
2024-04-22T09:11:39.649Z,66.63
2024-04-22T09:12:10.299Z,67.55
2024-04-22T09:13:08.191Z,67.66
2024-04-22T09:14:08.122Z,67.97
2024-04-22T09:15:08.055Z,68.59
2024-04-22T09:16:07.913Z,69.00
2024-04-22T09:17:07.840Z,69.62
2024-04-22T09:18:07.988Z,69.72
2024-04-22T09:19:07.771Z,69.72
2024-04-22T09:20:08.078Z,69.51
2024-04-22T09:21:08.474Z,69.51
2024-04-22T09:22:07.787Z,69.51
2024-04-22T09:23:07.848Z,69.00
2024-04-22T09:24:07.781Z,69.10
2024-04-22T09:25:07.706Z,69.20
2024-04-22T09:26:07.947Z,69.27
2024-04-22T09:27:07.698Z,69.59
2024-04-22T09:28:07.726Z,68.93
2024-04-22T09:29:07.677Z,68.32
2024-04-22T09:30:07.980Z,68.11
2024-04-22T09:31:07.637Z,68.49
2024-04-22T09:32:07.752Z,67.97
2024-04-22T09:33:07.724Z,66.64
2024-04-22T09:34:07.714Z,66.53
2024-04-22T09:35:12.784Z,65.19
2024-04-22T09:36:07.710Z,64.37
2024-04-22T09:37:07.649Z,64.17
2024-04-22T09:38:07.640Z,64.37
2024-04-22T09:39:07.744Z,64.47
2024-04-22T09:40:07.563Z,64.17
2024-04-22T09:41:07.636Z,63.54
2024-04-22T09:42:07.571Z,63.24
2024-04-22T09:43:07.518Z,63.34
2024-04-22T09:44:11.823Z,63.47
2024-04-22T09:45:07.475Z,64.19
2024-04-22T09:46:07.493Z,64.50
2024-04-22T09:47:07.593Z,64.61
2024-04-22T09:48:07.726Z,65.02
2024-04-22T09:49:07.699Z,65.53
2024-04-22T09:50:07.498Z,66.46
2024-04-22T09:51:07.537Z,67.18
2024-04-22T09:52:07.415Z,67.29
2024-04-22T09:53:07.441Z,67.39
2024-04-22T09:54:07.521Z,67.60
2024-04-22T09:55:07.438Z,67.80
2024-04-22T09:56:07.412Z,67.70
2024-04-22T09:57:07.409Z,67.39
2024-04-22T09:58:07.346Z,68.01
2024-04-22T09:59:07.566Z,69.55
2024-04-22T10:00:07.314Z,69.14
2024-04-22T10:01:07.359Z,66.94
2024-04-22T10:02:07.547Z,66.74
2024-04-22T10:03:07.384Z,66.74
2024-04-22T10:04:07.340Z,65.78
2024-04-22T10:05:07.543Z,65.89
2024-04-22T10:06:07.514Z,65.89
2024-04-22T10:07:07.391Z,64.86
2024-04-22T10:08:07.329Z,63.69
2024-04-22T10:09:07.223Z,63.39
2024-04-22T10:10:07.252Z,63.59
2024-04-22T10:11:07.506Z,63.97
2024-04-22T10:12:07.342Z,63.97
2024-04-22T10:13:07.204Z,63.56
2024-04-22T10:14:07.285Z,62.33
2024-04-22T10:15:07.162Z,62.95
2024-04-22T10:16:07.240Z,62.92
2024-04-22T10:17:07.185Z,65.20
2024-04-22T10:18:09.327Z,66.00
2024-04-22T10:19:07.225Z,67.03
2024-04-22T10:20:07.335Z,65.31
2024-04-22T10:21:07.080Z,65.52
2024-04-22T10:22:07.128Z,64.48
2024-04-22T10:23:07.072Z,62.95
2024-04-22T10:24:07.063Z,63.05
2024-04-22T10:25:07.385Z,62.87
2024-04-22T10:26:07.031Z,63.28
2024-04-22T10:27:11.558Z,63.59
2024-04-22T10:28:07.015Z,64.31
2024-04-22T10:29:07.038Z,65.03
2024-04-22T10:30:08.993Z,64.00
2024-04-22T10:31:06.986Z,62.56
2024-04-22T10:32:07.026Z,62.46
2024-04-22T10:33:07.113Z,62.56
2024-04-22T10:34:06.993Z,62.56
2024-04-22T10:35:06.950Z,63.07
2024-04-22T10:36:06.922Z,64.65
2024-04-22T10:37:06.936Z,65.68
2024-04-22T10:38:06.910Z,66.30
2024-04-22T10:39:06.893Z,67.15
2024-04-22T10:40:06.879Z,67.97
2024-04-22T10:41:06.871Z,68.49
2024-04-22T10:42:06.855Z,69.14
2024-04-22T10:43:06.842Z,69.96
2024-04-22T10:44:06.872Z,70.82
2024-04-22T10:45:06.823Z,71.75
2024-04-22T10:46:06.903Z,72.37
2024-04-22T10:47:06.816Z,72.58
2024-04-22T10:48:12.498Z,71.89
2024-04-22T10:49:06.923Z,71.81
2024-04-22T10:50:07.713Z,72.23
2024-04-22T10:51:06.920Z,72.02
2024-04-22T10:52:06.756Z,72.13
2024-04-22T10:53:07.642Z,72.02
2024-04-22T10:54:06.755Z,71.89
2024-04-22T10:55:07.068Z,71.89
2024-04-22T10:56:07.010Z,71.78
2024-04-22T10:57:06.702Z,71.75
2024-04-22T10:58:06.683Z,71.55
2024-04-22T10:59:06.750Z,71.64
2024-04-22T11:00:06.700Z,71.82
2024-04-22T11:01:07.246Z,71.82
2024-04-22T11:02:06.809Z,71.48
2024-04-22T11:03:06.974Z,71.06
2024-04-22T11:04:06.793Z,70.31
2024-04-22T11:05:06.763Z,69.70
2024-04-22T11:06:06.683Z,69.59
2024-04-22T11:07:06.636Z,69.79
2024-04-22T11:08:06.622Z,70.42
2024-04-22T11:09:06.632Z,70.83
2024-04-22T11:10:06.598Z,71.00
2024-04-22T11:11:06.671Z,70.90
2024-04-22T11:12:06.614Z,71.10
2024-04-22T11:13:06.539Z,70.04
2024-04-22T11:14:06.538Z,68.70
2024-04-22T11:15:06.558Z,68.50
2024-04-22T11:16:06.531Z,68.40
2024-04-22T11:17:06.700Z,67.68
2024-04-22T11:18:06.481Z,67.57
2024-04-22T11:19:07.386Z,67.36
2024-04-22T11:20:06.446Z,68.19
2024-04-22T11:21:06.462Z,68.16
2024-04-22T11:22:06.428Z,67.75
2024-04-22T11:23:06.424Z,67.44
2024-04-22T11:24:06.419Z,66.41
2024-04-22T11:25:06.638Z,65.28
2024-04-22T11:26:06.402Z,65.28
2024-04-22T11:27:06.433Z,66.64
2024-04-22T11:28:06.379Z,67.88
2024-04-22T11:29:06.339Z,67.88
2024-04-22T11:30:06.357Z,68.08
2024-04-22T11:31:06.320Z,68.22
2024-04-22T11:32:06.448Z,68.22
2024-04-22T11:33:06.440Z,68.12
2024-04-22T11:34:06.311Z,68.12
2024-04-22T11:35:06.289Z,68.22
2024-04-22T11:36:06.339Z,68.15
2024-04-22T11:37:06.278Z,68.05
2024-04-22T11:38:06.269Z,67.22
2024-04-22T11:39:06.335Z,67.63
2024-04-22T11:40:06.235Z,67.74
2024-04-22T11:41:06.224Z,67.84
2024-04-22T11:42:06.239Z,67.94
2024-04-22T11:43:06.284Z,68.05
2024-04-22T11:44:06.178Z,67.94
2024-04-22T11:45:07.071Z,67.94
2024-04-22T11:46:06.192Z,68.32
2024-04-22T11:47:06.317Z,68.53
2024-04-22T11:48:06.267Z,68.12
2024-04-22T11:49:06.135Z,67.40
2024-04-22T11:50:06.112Z,66.58
2024-04-22T11:51:06.140Z,66.47
2024-04-22T11:52:06.090Z,66.27
2024-04-22T11:53:14.449Z,66.44
2024-04-22T11:54:06.137Z,66.24
2024-04-22T11:55:06.068Z,66.03
2024-04-22T11:56:08.824Z,65.52
2024-04-22T11:57:06.042Z,65.31
2024-04-22T11:58:06.030Z,65.08
2024-04-22T11:59:06.040Z,65.08
2024-04-22T12:00:06.089Z,64.76
2024-04-22T12:01:06.035Z,62.95
2024-04-22T12:02:05.980Z,63.46
2024-04-22T12:03:05.970Z,63.64
2024-04-22T12:04:05.984Z,63.43
2024-04-22T12:05:06.034Z,62.92
2024-04-22T12:06:06.042Z,62.30
2024-04-22T12:07:05.937Z,62.71
2024-04-22T12:08:05.920Z,63.32
2024-04-22T12:09:07.674Z,63.12
2024-04-22T12:10:05.901Z,62.30
2024-04-22T12:11:05.920Z,62.09
2024-04-22T12:12:05.898Z,62.30
2024-04-22T12:13:05.869Z,62.40
2024-04-22T12:14:05.852Z,62.19
2024-04-22T12:15:06.661Z,61.88
2024-04-22T12:16:05.956Z,62.09
2024-04-22T12:17:06.005Z,61.99
2024-04-22T12:18:05.832Z,61.86
2024-04-22T12:19:05.810Z,61.65
2024-04-22T12:20:05.803Z,61.96
2024-04-22T12:21:06.074Z,61.35
2024-04-22T12:22:05.792Z,60.80
2024-04-22T12:23:05.757Z,59.67
2024-04-22T12:24:05.757Z,59.88
2024-04-22T12:25:05.743Z,60.39
2024-04-22T12:26:05.729Z,60.60
2024-04-22T12:27:07.180Z,60.39
2024-04-22T12:28:13.662Z,60.19
2024-04-22T12:29:05.751Z,59.77
2024-04-22T12:30:05.692Z,59.44
2024-04-22T12:31:05.674Z,59.03
2024-04-22T12:32:05.659Z,58.44
2024-04-22T12:33:05.715Z,58.54
2024-04-22T12:34:12.398Z,59.06
2024-04-22T12:35:05.657Z,59.57
2024-04-22T12:36:05.621Z,59.57
2024-04-22T12:37:05.608Z,59.26
2024-04-22T12:38:07.042Z,59.26
2024-04-22T12:39:05.613Z,59.44
2024-04-22T12:40:05.578Z,59.13
2024-04-22T12:41:05.563Z,58.41
2024-04-22T12:42:05.559Z,58.51
2024-04-22T12:43:05.553Z,57.59
2024-04-22T12:44:05.620Z,57.08
2024-04-22T12:45:05.530Z,56.77
2024-04-22T12:46:05.511Z,56.64
2024-04-22T12:47:05.499Z,56.85
2024-04-22T12:48:05.619Z,56.95
2024-04-22T12:49:05.486Z,57.26
2024-04-22T12:50:05.537Z,56.85
2024-04-22T12:51:05.451Z,56.23
2024-04-22T12:52:05.479Z,56.26